Time;durP1;ratioP1;P1;durP2;ratioP2;P2;SDS_P1;SDS_P2;PMS_P1;PMS_P2;Temp;Humidity;BMP_temperature;BMP_pressure;BME280_temperature;BME280_humidity;BME280_pressure;Samples;Min_cycle;Max_cycle;Signal;HPM_P1;HPM_P2
2022/03/08 00:01:10;;;;;;;8.85;3.60;;;;;;;;;;5087433;28;20107;-49
2022/03/08 00:03:36;;;;;;;7.45;4.32;;;;;;;;;;5078706;28;20116;-48
2022/03/08 00:06:02;;;;;;;8.15;4.28;;;;;;;;;;5077707;28;20028;-48
2022/03/08 00:08:28;;;;;;;7.45;3.17;;;;;;;;;;5083013;28;20031;-48
2022/03/08 00:10:54;;;;;;;6.47;3.83;;;;;;;;;;5088183;28;20100;-50
2022/03/08 00:13:20;;;;;;;8.82;3.67;;;;;;;;;;5089550;28;20032;-49
2022/03/08 00:15:46;;;;;;;9.23;3.75;;;;;;;;;;5088783;28;20380;-50
2022/03/08 00:18:12;;;;;;;12.90;3.97;;;;;;;;;;5089518;28;20480;-52
2022/03/08 00:20:39;;;;;;;7.55;3.55;;;;;;;;;;5076341;28;20465;-51
2022/03/08 00:23:05;;;;;;;6.75;4.20;;;;;;;;;;5091975;28;20077;-49
2022/03/08 00:25:31;;;;;;;7.68;4.05;;;;;;;;;;5080023;28;20111;-52
2022/03/08 00:27:57;;;;;;;8.10;5.00;;;;;;;;;;5083682;28;20524;-52
2022/03/08 00:30:24;;;;;;;9.68;4.50;;;;;;;;;;5087926;28;20024;-50
2022/03/08 00:32:51;;;;;;;11.00;4.40;;;;;;;;;;5081051;28;20017;-50
2022/03/08 00:35:18;;;;;;;8.95;4.10;;;;;;;;;;5086003;28;20084;-50
2022/03/08 00:37:44;;;;;;;8.85;4.13;;;;;;;;;;5079307;28;20016;-50
2022/03/08 00:40:11;;;;;;;9.00;4.38;;;;;;;;;;5089122;28;20035;-48
2022/03/08 00:42:37;;;;;;;8.85;4.25;;;;;;;;;;5081189;28;20028;-48
2022/03/08 00:45:03;;;;;;;7.40;4.63;;;;;;;;;;5087092;28;20115;-49
2022/03/08 00:47:29;;;;;;;8.18;4.00;;;;;;;;;;5082582;28;20078;-49
2022/03/08 00:49:55;;;;;;;12.85;4.47;;;;;;;;;;5085940;28;20028;-48
2022/03/08 00:52:21;;;;;;;7.97;4.22;;;;;;;;;;5075422;28;20056;-50
2022/03/08 00:54:47;;;;;;;11.07;5.82;;;;;;;;;;5078216;28;20111;-48
2022/03/08 00:57:13;;;;;;;10.50;5.40;;;;;;;;;;5084941;28;20115;-50
2022/03/08 00:59:39;;;;;;;8.60;4.70;;;;;;;;;;5092582;28;20024;-53
2022/03/08 01:02:05;;;;;;;12.85;4.93;;;;;;;;;;5079341;28;20139;-50
2022/03/08 01:04:32;;;;;;;10.68;4.47;;;;;;;;;;5076768;28;20069;-49
2022/03/08 01:06:58;;;;;;;10.88;4.28;;;;;;;;;;5085684;28;20020;-50
2022/03/08 01:09:24;;;;;;;6.60;3.70;;;;;;;;;;5088852;28;20016;-50
2022/03/08 01:11:50;;;;;;;7.97;4.18;;;;;;;;;;5082299;28;20523;-50
2022/03/08 01:14:16;;;;;;;7.78;4.22;;;;;;;;;;5087006;28;20036;-48
2022/03/08 01:16:42;;;;;;;7.05;4.35;;;;;;;;;;5080862;28;20031;-49
2022/03/08 01:19:08;;;;;;;8.25;4.10;;;;;;;;;;5080589;28;20452;-49
2022/03/08 01:21:37;;;;;;;8.70;4.43;;;;;;;;;;5083748;28;20110;-49
2022/03/08 01:24:04;;;;;;;8.45;4.65;;;;;;;;;;5088008;28;20056;-49
2022/03/08 01:26:31;;;;;;;7.63;4.47;;;;;;;;;;5078153;28;20039;-48
2022/03/08 01:28:57;;;;;;;10.80;5.05;;;;;;;;;;5091150;28;20103;-50
2022/03/08 01:31:23;;;;;;;8.30;4.40;;;;;;;;;;5082302;28;20112;-48
2022/03/08 01:33:49;;;;;;;6.43;4.18;;;;;;;;;;5081524;28;20028;-49
2022/03/08 01:36:15;;;;;;;6.97;4.00;;;;;;;;;;5076100;28;20057;-50
2022/03/08 01:38:41;;;;;;;8.10;4.32;;;;;;;;;;5087865;28;20491;-51
2022/03/08 01:41:07;;;;;;;8.43;4.53;;;;;;;;;;5088699;28;20478;-50
2022/03/08 01:43:33;;;;;;;6.88;4.25;;;;;;;;;;5082605;28;20112;-51
2022/03/08 01:45:59;;;;;;;8.68;4.65;;;;;;;;;;5071714;28;20445;-49
2022/03/08 01:48:25;;;;;;;11.48;5.15;;;;;;;;;;5086031;28;20025;-49
2022/03/08 01:50:52;;;;;;;8.63;4.28;;;;;;;;;;5082692;28;20017;-52
2022/03/08 01:53:18;;;;;;;8.30;3.95;;;;;;;;;;5086606;28;20408;-53
2022/03/08 01:55:44;;;;;;;7.95;4.40;;;;;;;;;;5079726;28;20028;-49
2022/03/08 01:58:10;;;;;;;8.93;5.35;;;;;;;;;;5081011;28;20051;-50
2022/03/08 02:00:36;;;;;;;13.23;4.95;;;;;;;;;;5076708;28;20661;-51
2022/03/08 02:03:02;;;;;;;9.68;4.95;;;;;;;;;;5080025;28;20389;-53
2022/03/08 02:05:29;;;;;;;7.78;4.32;;;;;;;;;;5085002;28;20123;-49
2022/03/08 02:07:55;;;;;;;7.95;4.45;;;;;;;;;;5074096;28;20050;-48
2022/03/08 02:10:22;;;;;;;9.18;4.63;;;;;;;;;;5081418;28;20027;-49
2022/03/08 02:12:48;;;;;;;9.15;4.78;;;;;;;;;;5092135;28;20057;-49
2022/03/08 02:15:15;;;;;;;9.55;4.22;;;;;;;;;;5093857;28;20016;-48
2022/03/08 02:17:41;;;;;;;12.80;4.68;;;;;;;;;;5083562;28;20338;-48
2022/03/08 02:20:08;;;;;;;6.50;4.65;;;;;;;;;;5094385;28;20028;-49
2022/03/08 02:22:34;;;;;;;10.32;4.43;;;;;;;;;;5084779;28;20103;-49
2022/03/08 02:25:00;;;;;;;6.70;3.97;;;;;;;;;;5093808;28;20032;-49
2022/03/08 02:27:26;;;;;;;7.97;4.63;;;;;;;;;;5083045;28;20047;-48
2022/03/08 02:29:52;;;;;;;7.70;4.50;;;;;;;;;;5080257;28;20024;-48
2022/03/08 02:32:18;;;;;;;10.18;5.03;;;;;;;;;;5080466;28;20031;-48
2022/03/08 02:34:44;;;;;;;8.25;4.70;;;;;;;;;;5087406;28;20020;-49
2022/03/08 02:37:12;;;;;;;9.32;4.72;;;;;;;;;;5085015;28;20032;-51
2022/03/08 02:39:38;;;;;;;9.43;4.95;;;;;;;;;;5079536;28;20024;-49
2022/03/08 02:42:05;;;;;;;6.70;4.00;;;;;;;;;;5084043;28;20111;-51
2022/03/08 02:44:31;;;;;;;8.38;4.30;;;;;;;;;;5078968;28;20057;-50
2022/03/08 02:46:57;;;;;;;7.18;4.47;;;;;;;;;;5086160;28;20024;-50
2022/03/08 02:49:23;;;;;;;10.95;4.85;;;;;;;;;;5079265;28;20647;-50
2022/03/08 02:51:49;;;;;;;7.65;4.35;;;;;;;;;;5082688;28;20075;-50
2022/03/08 02:54:15;;;;;;;7.47;4.38;;;;;;;;;;5087495;28;20028;-49
2022/03/08 02:56:41;;;;;;;11.55;4.63;;;;;;;;;;5090582;28;20024;-48
2022/03/08 02:59:07;;;;;;;8.50;4.60;;;;;;;;;;5076881;28;20032;-50
2022/03/08 03:01:33;;;;;;;10.30;4.82;;;;;;;;;;5086566;28;20020;-48
2022/03/08 03:03:59;;;;;;;8.55;4.18;;;;;;;;;;5076650;28;20036;-50
2022/03/08 03:06:25;;;;;;;7.22;4.93;;;;;;;;;;5085090;28;20110;-49
2022/03/08 03:08:51;;;;;;;10.20;4.30;;;;;;;;;;5086904;28;20028;-51
2022/03/08 03:11:17;;;;;;;10.38;4.30;;;;;;;;;;5079913;28;20043;-48
2022/03/08 03:13:43;;;;;;;6.32;3.95;;;;;;;;;;5080653;28;20024;-48
2022/03/08 03:16:09;;;;;;;9.57;4.30;;;;;;;;;;5082886;28;20039;-48
2022/03/08 03:18:35;;;;;;;8.73;3.88;;;;;;;;;;5084301;28;20028;-49
2022/03/08 03:21:01;;;;;;;8.88;4.25;;;;;;;;;;5078733;28;20461;-48
2022/03/08 03:23:27;;;;;;;6.43;4.30;;;;;;;;;;5084545;28;20035;-48
2022/03/08 03:25:53;;;;;;;9.82;5.20;;;;;;;;;;5088681;28;20074;-48
2022/03/08 03:28:19;;;;;;;8.48;4.63;;;;;;;;;;5079300;28;20456;-52
2022/03/08 03:30:45;;;;;;;6.57;4.07;;;;;;;;;;5077679;28;20043;-51
2022/03/08 03:33:11;;;;;;;7.07;4.43;;;;;;;;;;5080405;28;20053;-51
2022/03/08 03:35:37;;;;;;;6.75;4.32;;;;;;;;;;5087406;28;20032;-50
2022/03/08 03:38:03;;;;;;;9.48;4.38;;;;;;;;;;5077836;28;20039;-52
2022/03/08 03:40:29;;;;;;;7.85;4.45;;;;;;;;;;5080725;28;20506;-49
2022/03/08 03:42:55;;;;;;;7.78;3.78;;;;;;;;;;5080387;28;20028;-50
2022/03/08 03:45:21;;;;;;;9.23;4.47;;;;;;;;;;5078771;28;20369;-50
2022/03/08 03:47:47;;;;;;;9.63;4.57;;;;;;;;;;5074156;28;20040;-50
2022/03/08 03:50:13;;;;;;;7.60;4.05;;;;;;;;;;5082793;28;20029;-48
2022/03/08 03:52:39;;;;;;;10.40;4.55;;;;;;;;;;5053665;28;977982;-49
2022/03/08 03:55:05;;;;;;;8.13;4.60;;;;;;;;;;5085079;28;20032;-48
2022/03/08 03:57:31;;;;;;;7.85;4.38;;;;;;;;;;5075890;28;20032;-50
2022/03/08 03:59:57;;;;;;;6.60;4.05;;;;;;;;;;5079828;28;20175;-48
2022/03/08 04:02:23;;;;;;;7.05;4.22;;;;;;;;;;5083520;28;20058;-49
2022/03/08 04:04:49;;;;;;;10.02;4.30;;;;;;;;;;5077851;28;20384;-51
2022/03/08 04:07:15;;;;;;;7.70;3.83;;;;;;;;;;5084710;28;20119;-51
2022/03/08 04:09:41;;;;;;;7.03;4.18;;;;;;;;;;5083806;28;20032;-51
2022/03/08 04:12:07;;;;;;;9.65;4.47;;;;;;;;;;5081947;28;20043;-48
2022/03/08 04:14:33;;;;;;;6.90;4.18;;;;;;;;;;5077143;28;20028;-51
2022/03/08 04:16:59;;;;;;;7.20;4.15;;;;;;;;;;5083580;28;20346;-51
2022/03/08 04:19:25;;;;;;;12.57;4.22;;;;;;;;;;5084632;28;20039;-49
2022/03/08 04:21:51;;;;;;;7.45;4.72;;;;;;;;;;5077231;28;20056;-48
2022/03/08 04:24:17;;;;;;;10.18;4.43;;;;;;;;;;5079627;28;20400;-51
2022/03/08 04:26:43;;;;;;;6.63;4.10;;;;;;;;;;5088594;28;20024;-50
2022/03/08 04:29:09;;;;;;;8.48;4.65;;;;;;;;;;5081298;28;20036;-48
2022/03/08 04:31:35;;;;;;;7.43;4.55;;;;;;;;;;5079468;28;20025;-50
2022/03/08 04:34:01;;;;;;;7.20;4.35;;;;;;;;;;5080952;28;20078;-49
2022/03/08 04:36:27;;;;;;;9.27;4.45;;;;;;;;;;5082165;28;20055;-49
2022/03/08 04:38:53;;;;;;;8.48;4.63;;;;;;;;;;5080105;28;20040;-49
2022/03/08 04:41:19;;;;;;;8.60;4.25;;;;;;;;;;5082351;28;20036;-48
2022/03/08 04:43:46;;;;;;;8.95;4.72;;;;;;;;;;5081669;28;20051;-48
2022/03/08 04:46:12;;;;;;;7.38;4.65;;;;;;;;;;5077037;28;20040;-48
2022/03/08 04:48:38;;;;;;;7.95;4.57;;;;;;;;;;5080099;28;20036;-48
2022/03/08 04:51:04;;;;;;;8.48;4.43;;;;;;;;;;5078910;28;20017;-48
2022/03/08 04:53:30;;;;;;;7.22;3.95;;;;;;;;;;5080828;28;20049;-49
2022/03/08 04:55:56;;;;;;;8.00;3.83;;;;;;;;;;5079651;28;20016;-48
2022/03/08 04:58:22;;;;;;;9.23;4.25;;;;;;;;;;5074349;28;20089;-52
2022/03/08 05:00:48;;;;;;;5.50;3.63;;;;;;;;;;5074628;28;20038;-49
2022/03/08 05:03:14;;;;;;;7.32;3.65;;;;;;;;;;5082489;28;20092;-48
2022/03/08 05:05:40;;;;;;;9.10;4.55;;;;;;;;;;5081088;28;20032;-50
2022/03/08 05:08:06;;;;;;;8.80;4.50;;;;;;;;;;5089516;28;20032;-50
2022/03/08 05:10:32;;;;;;;7.90;4.20;;;;;;;;;;5082257;28;20116;-52
2022/03/08 05:13:00;;;;;;;7.22;4.50;;;;;;;;;;5086147;28;20025;-48
2022/03/08 05:15:25;;;;;;;7.15;4.00;;;;;;;;;;5083809;28;20048;-50
2022/03/08 05:17:52;;;;;;;11.32;5.10;;;;;;;;;;5080063;28;20048;-48
2022/03/08 05:20:18;;;;;;;9.50;4.53;;;;;;;;;;5084682;28;20024;-49
2022/03/08 05:22:44;;;;;;;10.48;4.88;;;;;;;;;;5082610;28;20031;-48
2022/03/08 05:25:10;;;;;;;11.15;4.60;;;;;;;;;;5084681;28;20020;-48
2022/03/08 05:27:36;;;;;;;9.73;5.05;;;;;;;;;;5076541;28;20021;-48
2022/03/08 05:30:02;;;;;;;8.18;4.70;;;;;;;;;;5080452;28;20162;-48
2022/03/08 05:32:28;;;;;;;10.02;5.03;;;;;;;;;;5080938;28;20520;-49
2022/03/08 05:34:54;;;;;;;7.95;4.50;;;;;;;;;;5072532;28;20036;-51
2022/03/08 05:37:20;;;;;;;13.57;4.75;;;;;;;;;;5078540;28;20024;-50
2022/03/08 05:39:46;;;;;;;6.97;4.22;;;;;;;;;;5075929;28;20431;-48
2022/03/08 05:42:12;;;;;;;7.63;4.38;;;;;;;;;;5081982;28;20028;-48
2022/03/08 05:44:38;;;;;;;8.10;4.35;;;;;;;;;;5081258;28;20068;-52
2022/03/08 05:47:05;;;;;;;9.18;4.38;;;;;;;;;;5075701;28;20525;-48
2022/03/08 05:49:31;;;;;;;8.68;4.32;;;;;;;;;;5084816;28;20045;-53
2022/03/08 05:51:57;;;;;;;10.02;5.40;;;;;;;;;;5083705;28;20123;-49
2022/03/08 05:54:23;;;;;;;9.93;5.07;;;;;;;;;;5075829;28;20028;-49
2022/03/08 05:56:49;;;;;;;10.43;5.88;;;;;;;;;;5074160;28;20048;-49
2022/03/08 05:59:15;;;;;;;11.63;5.45;;;;;;;;;;5074332;28;20032;-51
2022/03/08 06:01:41;;;;;;;12.13;4.63;;;;;;;;;;5074729;28;20090;-48
2022/03/08 06:04:07;;;;;;;10.88;4.97;;;;;;;;;;5076596;28;20028;-49
2022/03/08 06:06:33;;;;;;;6.82;4.55;;;;;;;;;;5074829;28;20036;-48
2022/03/08 06:08:59;;;;;;;8.93;4.78;;;;;;;;;;5083513;28;20016;-48
2022/03/08 06:11:25;;;;;;;10.02;4.38;;;;;;;;;;5071802;28;20068;-49
2022/03/08 06:13:51;;;;;;;10.05;4.15;;;;;;;;;;5077547;28;20048;-48
2022/03/08 06:16:17;;;;;;;8.98;4.30;;;;;;;;;;5074964;28;20275;-48
2022/03/08 06:18:43;;;;;;;7.82;4.30;;;;;;;;;;5083415;28;20036;-48
2022/03/08 06:21:09;;;;;;;11.32;4.30;;;;;;;;;;5075390;28;20028;-48
2022/03/08 06:23:35;;;;;;;8.63;4.75;;;;;;;;;;5085055;28;20125;-48
2022/03/08 06:26:01;;;;;;;6.55;4.45;;;;;;;;;;5082617;28;21890;-48
2022/03/08 06:28:27;;;;;;;10.05;4.85;;;;;;;;;;5080787;28;20052;-48
2022/03/08 06:30:53;;;;;;;7.60;4.20;;;;;;;;;;5084021;28;20063;-48
2022/03/08 06:33:19;;;;;;;9.60;4.40;;;;;;;;;;5078756;28;20028;-48
2022/03/08 06:35:45;;;;;;;7.47;4.80;;;;;;;;;;5079959;28;20452;-49
2022/03/08 06:38:11;;;;;;;11.85;4.75;;;;;;;;;;5085863;28;20028;-51
2022/03/08 06:40:37;;;;;;;8.60;4.63;;;;;;;;;;5078863;28;20134;-52
2022/03/08 06:43:03;;;;;;;10.30;4.68;;;;;;;;;;5069457;28;20028;-48
2022/03/08 06:45:29;;;;;;;8.63;4.30;;;;;;;;;;5079593;28;20033;-50
2022/03/08 06:47:55;;;;;;;7.70;5.20;;;;;;;;;;5077384;28;20032;-48
2022/03/08 06:50:21;;;;;;;9.77;5.03;;;;;;;;;;5079257;28;20024;-49
2022/03/08 06:52:47;;;;;;;7.88;4.35;;;;;;;;;;5089414;28;20139;-48
2022/03/08 06:55:13;;;;;;;7.88;4.43;;;;;;;;;;5081262;28;20039;-50
2022/03/08 06:57:39;;;;;;;8.35;5.20;;;;;;;;;;5077196;28;20379;-49
2022/03/08 07:00:07;;;;;;;8.50;5.10;;;;;;;;;;5078228;28;20457;-48
2022/03/08 07:02:33;;;;;;;13.70;5.50;;;;;;;;;;5082328;28;20020;-48
2022/03/08 07:04:59;;;;;;;11.63;5.78;;;;;;;;;;5091635;28;20459;-51
2022/03/08 07:07:25;;;;;;;10.63;5.10;;;;;;;;;;5078125;28;20021;-48
2022/03/08 07:09:51;;;;;;;9.75;5.43;;;;;;;;;;5084649;28;20046;-48
2022/03/08 07:12:17;;;;;;;11.05;5.05;;;;;;;;;;5087381;28;20215;-49
2022/03/08 07:14:43;;;;;;;10.05;5.55;;;;;;;;;;5080012;28;20452;-48
2022/03/08 07:17:09;;;;;;;8.20;4.50;;;;;;;;;;5079974;28;20044;-48
2022/03/08 07:19:35;;;;;;;9.90;5.72;;;;;;;;;;5092921;28;20035;-52
2022/03/08 07:22:01;;;;;;;9.32;5.40;;;;;;;;;;5076144;28;20037;-48
2022/03/08 07:24:27;;;;;;;10.10;5.72;;;;;;;;;;5077300;28;20028;-49
2022/03/08 07:26:53;;;;;;;9.68;5.32;;;;;;;;;;5080394;28;20048;-52
2022/03/08 07:29:19;;;;;;;12.80;5.93;;;;;;;;;;5085807;28;20028;-52
2022/03/08 07:31:45;;;;;;;13.23;6.00;;;;;;;;;;5087823;28;20039;-50
2022/03/08 07:34:11;;;;;;;13.52;5.43;;;;;;;;;;5085680;28;20024;-49
2022/03/08 07:36:38;;;;;;;12.82;6.65;;;;;;;;;;5086686;28;20134;-53
2022/03/08 07:39:04;;;;;;;13.20;6.28;;;;;;;;;;5085458;28;20158;-49
2022/03/08 07:41:30;;;;;;;11.48;6.50;;;;;;;;;;5076802;28;20500;-50
2022/03/08 07:43:56;;;;;;;11.10;5.45;;;;;;;;;;5078800;28;20016;-51
2022/03/08 07:46:22;;;;;;;9.50;5.95;;;;;;;;;;5076969;28;20069;-49
2022/03/08 07:48:48;;;;;;;12.70;6.03;;;;;;;;;;5081889;28;20779;-51
2022/03/08 07:51:14;;;;;;;10.68;5.43;;;;;;;;;;5083254;28;20387;-48
2022/03/08 07:53:40;;;;;;;10.48;5.30;;;;;;;;;;5092219;28;20553;-49
2022/03/08 07:56:06;;;;;;;10.15;5.18;;;;;;;;;;5083196;28;20020;-50
2022/03/08 07:58:34;;;;;;;11.43;5.60;;;;;;;;;;5091069;28;20035;-49
2022/03/08 08:01:00;;;;;;;11.02;6.00;;;;;;;;;;5076037;28;20412;-48
2022/03/08 08:03:26;;;;;;;10.73;5.93;;;;;;;;;;5091530;28;20032;-50
2022/03/08 08:05:52;;;;;;;11.55;6.18;;;;;;;;;;5082603;28;20106;-48
2022/03/08 08:08:18;;;;;;;11.07;6.07;;;;;;;;;;5083160;28;20056;-48
2022/03/08 08:10:44;;;;;;;9.52;5.35;;;;;;;;;;5077076;28;20025;-50
2022/03/08 08:13:09;;;;;;;12.43;6.45;;;;;;;;;;5083403;28;20016;-47
2022/03/08 08:15:37;;;;;;;12.30;6.13;;;;;;;;;;5078806;28;20028;-47
2022/03/08 08:18:03;;;;;;;9.40;4.95;;;;;;;;;;5085222;28;20423;-48
2022/03/08 08:20:29;;;;;;;9.80;5.55;;;;;;;;;;5085376;28;20024;-50
2022/03/08 08:22:55;;;;;;;8.68;4.80;;;;;;;;;;5078174;28;20099;-47
2022/03/08 08:25:21;;;;;;;9.45;4.57;;;;;;;;;;5080882;28;20032;-47
2022/03/08 08:27:47;;;;;;;10.13;4.55;;;;;;;;;;5077841;28;20467;-47
2022/03/08 08:30:13;;;;;;;7.18;3.40;;;;;;;;;;5080579;28;20063;-51
2022/03/08 08:32:40;;;;;;;6.72;4.18;;;;;;;;;;5078354;28;20028;-47
2022/03/08 08:35:07;;;;;;;7.70;3.40;;;;;;;;;;5085124;28;20036;-47
2022/03/08 08:37:33;;;;;;;8.02;3.50;;;;;;;;;;5091191;28;20106;-47
2022/03/08 08:39:59;;;;;;;6.82;3.45;;;;;;;;;;5078548;28;20515;-47
2022/03/08 08:42:25;;;;;;;7.07;4.05;;;;;;;;;;5073622;28;20115;-47
2022/03/08 08:44:51;;;;;;;5.50;3.22;;;;;;;;;;5077573;28;20354;-47
2022/03/08 08:47:17;;;;;;;7.00;3.90;;;;;;;;;;5076625;28;20039;-47
2022/03/08 08:49:43;;;;;;;6.30;2.85;;;;;;;;;;5075972;28;20056;-49
2022/03/08 08:52:09;;;;;;;8.15;3.70;;;;;;;;;;5086669;28;20053;-49
2022/03/08 08:54:35;;;;;;;7.38;2.50;;;;;;;;;;5084744;28;20093;-53
2022/03/08 08:57:01;;;;;;;3.80;1.70;;;;;;;;;;5088942;28;20032;-50
2022/03/08 08:59:27;;;;;;;5.32;2.58;;;;;;;;;;5084545;28;20024;-49
2022/03/08 09:01:53;;;;;;;6.65;3.38;;;;;;;;;;5075985;28;20024;-49
2022/03/08 09:04:19;;;;;;;4.90;2.63;;;;;;;;;;5084673;28;20024;-47
2022/03/08 09:06:45;;;;;;;5.05;2.90;;;;;;;;;;5084046;28;20024;-48
2022/03/08 09:09:12;;;;;;;4.90;2.40;;;;;;;;;;5085471;28;20468;-47
2022/03/08 09:11:38;;;;;;;5.70;2.78;;;;;;;;;;5084185;28;20028;-47
2022/03/08 09:14:04;;;;;;;5.95;2.33;;;;;;;;;;5083312;28;20578;-46
2022/03/08 09:16:30;;;;;;;6.30;2.42;;;;;;;;;;5078408;28;20389;-47
2022/03/08 09:18:57;;;;;;;3.03;1.35;;;;;;;;;;5078908;28;20048;-48
2022/03/08 09:21:23;;;;;;;2.20;1.10;;;;;;;;;;5089297;28;20032;-48
2022/03/08 09:23:49;;;;;;;3.15;1.40;;;;;;;;;;5076974;28;20151;-49
2022/03/08 09:26:15;;;;;;;2.25;1.42;;;;;;;;;;5084058;28;20107;-50
2022/03/08 09:28:41;;;;;;;3.85;1.27;;;;;;;;;;5083523;28;20515;-48
2022/03/08 09:31:07;;;;;;;9.10;1.75;;;;;;;;;;5077416;28;20039;-47
2022/03/08 09:33:33;;;;;;;2.72;1.83;;;;;;;;;;5078846;28;20024;-49
2022/03/08 09:35:59;;;;;;;3.50;1.67;;;;;;;;;;5078454;28;20025;-47
2022/03/08 09:38:25;;;;;;;4.20;1.95;;;;;;;;;;5077290;28;20051;-49
2022/03/08 09:40:52;;;;;;;4.13;2.10;;;;;;;;;;5076505;28;20073;-50
2022/03/08 09:43:18;;;;;;;4.65;2.40;;;;;;;;;;5081501;28;20032;-51
2022/03/08 09:45:44;;;;;;;5.03;1.80;;;;;;;;;;5079901;28;20103;-50
2022/03/08 09:48:10;;;;;;;3.60;1.80;;;;;;;;;;5073592;28;20059;-47
2022/03/08 09:50:37;;;;;;;4.63;1.98;;;;;;;;;;5077588;28;20529;-53
2022/03/08 09:53:03;;;;;;;3.53;1.55;;;;;;;;;;5075503;28;20174;-50
2022/03/08 09:55:29;;;;;;;4.05;2.08;;;;;;;;;;5080625;28;20066;-49
2022/03/08 09:57:55;;;;;;;3.10;1.80;;;;;;;;;;5080418;28;20056;-50
2022/03/08 10:00:25;;;;;;;5.47;2.20;;;;;;;;;;5083913;28;20070;-47
2022/03/08 10:02:52;;;;;;;3.63;1.90;;;;;;;;;;5073207;28;20033;-48
2022/03/08 10:05:43;;;;;;;2.83;1.60;;;;;;;;;;5078904;28;20033;-51
2022/03/08 10:08:19;;;;;;;5.95;1.98;;;;;;;;;;5079377;28;20040;-48
2022/03/08 10:10:58;;;;;;;4.22;1.98;;;;;;;;;;5081997;28;20020;-48
2022/03/08 10:13:26;;;;;;;7.07;1.90;;;;;;;;;;5089605;28;20524;-47
2022/03/08 10:16:04;;;;;;;4.40;1.80;;;;;;;;;;5081919;28;20060;-48
2022/03/08 10:18:43;;;;;;;5.38;1.77;;;;;;;;;;5086072;28;20027;-48
2022/03/08 10:21:27;;;;;;;3.00;1.77;;;;;;;;;;5085139;28;20039;-48
2022/03/08 10:23:54;;;;;;;3.42;1.55;;;;;;;;;;5081306;28;20036;-48
2022/03/08 10:26:20;;;;;;;4.40;1.48;;;;;;;;;;5081360;28;20090;-51
2022/03/08 10:28:48;;;;;;;3.35;1.58;;;;;;;;;;5083663;28;20016;-48
2022/03/08 10:31:15;;;;;;;4.55;1.75;;;;;;;;;;5078150;28;20028;-49
2022/03/08 10:33:41;;;;;;;1.58;1.17;;;;;;;;;;5088379;28;20055;-47
2022/03/08 10:36:21;;;;;;;3.90;1.52;;;;;;;;;;5086659;28;20032;-48
2022/03/08 10:39:02;;;;;;;3.60;1.40;;;;;;;;;;5093549;28;20036;-49
2022/03/08 10:41:28;;;;;;;2.88;1.10;;;;;;;;;;5090416;28;20059;-48
2022/03/08 10:43:56;;;;;;;2.78;1.48;;;;;;;;;;5084837;28;20024;-52
2022/03/08 10:46:22;;;;;;;2.08;1.58;;;;;;;;;;5091131;28;20101;-48
2022/03/08 10:48:48;;;;;;;3.67;1.20;;;;;;;;;;5080661;28;20028;-48
2022/03/08 10:51:15;;;;;;;1.77;0.95;;;;;;;;;;5078545;28;20050;-49
2022/03/08 10:53:42;;;;;;;3.67;1.63;;;;;;;;;;5085015;28;20086;-48
2022/03/08 10:56:09;;;;;;;3.15;1.30;;;;;;;;;;5091841;28;20028;-50
2022/03/08 10:58:35;;;;;;;2.28;1.02;;;;;;;;;;5089375;28;20028;-48
2022/03/08 11:01:02;;;;;;;2.75;0.93;;;;;;;;;;5081604;28;20020;-49
2022/03/08 11:03:28;;;;;;;1.70;0.82;;;;;;;;;;5088150;28;20051;-51
2022/03/08 11:05:55;;;;;;;3.47;1.05;;;;;;;;;;5083907;28;20388;-54
2022/03/08 11:08:22;;;;;;;2.67;1.20;;;;;;;;;;5094521;28;20480;-54
2022/03/08 11:10:48;;;;;;;2.38;1.20;;;;;;;;;;5079626;28;20751;-51
2022/03/08 11:13:15;;;;;;;1.75;1.08;;;;;;;;;;5088364;28;20034;-50
2022/03/08 11:15:43;;;;;;;2.63;1.40;;;;;;;;;;5075534;28;20069;-50
2022/03/08 11:18:10;;;;;;;2.00;0.98;;;;;;;;;;5076588;28;20532;-51
2022/03/08 11:20:37;;;;;;;2.85;1.00;;;;;;;;;;5082352;28;20440;-50
2022/03/08 11:23:03;;;;;;;3.47;1.20;;;;;;;;;;5081046;28;20108;-51
2022/03/08 11:25:31;;;;;;;2.47;0.85;;;;;;;;;;5088878;28;20028;-51
2022/03/08 11:27:57;;;;;;;1.30;0.90;;;;;;;;;;5093664;28;20032;-47
2022/03/08 11:30:24;;;;;;;2.60;0.98;;;;;;;;;;5090014;28;20028;-47
2022/03/08 11:33:05;;;;;;;1.98;0.90;;;;;;;;;;5091969;28;20043;-48
2022/03/08 11:35:37;;;;;;;2.53;1.13;;;;;;;;;;5082224;28;20047;-49
2022/03/08 11:38:04;;;;;;;2.17;1.00;;;;;;;;;;5090251;28;20153;-51
2022/03/08 11:40:34;;;;;;;1.58;0.77;;;;;;;;;;5089798;28;20120;-49
2022/03/08 11:43:03;;;;;;;1.02;0.50;;;;;;;;;;5084300;28;20186;-47
2022/03/08 11:45:30;;;;;;;1.83;0.80;;;;;;;;;;5081139;28;20108;-48
2022/03/08 11:48:00;;;;;;;1.60;0.70;;;;;;;;;;5092163;28;20032;-48
2022/03/08 11:50:27;;;;;;;1.30;0.45;;;;;;;;;;5080888;28;20025;-49
2022/03/08 11:53:06;;;;;;;2.20;0.82;;;;;;;;;;5086829;28;20040;-49
2022/03/08 11:55:33;;;;;;;1.48;0.55;;;;;;;;;;5086991;28;20032;-52
2022/03/08 11:58:00;;;;;;;0.98;0.57;;;;;;;;;;5093803;28;20510;-47
2022/03/08 12:00:34;;;;;;;1.92;0.73;;;;;;;;;;5087531;28;20077;-48
2022/03/08 12:03:05;;;;;;;2.20;0.88;;;;;;;;;;5087632;28;20044;-47
2022/03/08 12:05:41;;;;;;;1.15;0.43;;;;;;;;;;5087395;28;20032;-49
2022/03/08 12:08:23;;;;;;;1.38;0.70;;;;;;;;;;5086531;28;20024;-48
2022/03/08 12:10:49;;;;;;;3.50;0.57;;;;;;;;;;5091286;28;20030;-49
2022/03/08 12:13:16;;;;;;;2.55;0.90;;;;;;;;;;5092983;28;20059;-48
2022/03/08 12:16:15;;;;;;;2.42;0.95;;;;;;;;;;5090008;28;20687;-52
2022/03/08 12:18:50;;;;;;;2.08;1.00;;;;;;;;;;5073829;28;20123;-48
2022/03/08 12:21:22;;;;;;;1.75;0.75;;;;;;;;;;5074483;28;20032;-49
2022/03/08 12:24:04;;;;;;;2.20;0.90;;;;;;;;;;5080832;28;20101;-48
2022/03/08 12:26:43;;;;;;;2.17;1.10;;;;;;;;;;5079306;28;20028;-48
2022/03/08 12:29:13;;;;;;;2.22;0.90;;;;;;;;;;5096096;28;20028;-48
2022/03/08 12:31:57;;;;;;;2.60;0.80;;;;;;;;;;5086277;28;20025;-48
2022/03/08 12:34:39;;;;;;;2.10;0.65;;;;;;;;;;5087215;28;20500;-49
2022/03/08 12:37:14;;;;;;;1.50;0.77;;;;;;;;;;5075932;28;20383;-48
2022/03/08 12:39:59;;;;;;;1.52;0.90;;;;;;;;;;5083497;28;20063;-49
2022/03/08 12:42:29;;;;;;;1.00;0.70;;;;;;;;;;5081455;28;20484;-49
2022/03/08 12:44:54;;;;;;;2.28;0.95;;;;;;;;;;5080603;28;20024;-51
2022/03/08 12:47:21;;;;;;;2.10;0.80;;;;;;;;;;5086338;28;20028;-48
2022/03/08 12:49:47;;;;;;;2.63;0.80;;;;;;;;;;5076717;28;20104;-50
2022/03/08 12:52:15;;;;;;;1.75;0.98;;;;;;;;;;5078742;28;20064;-49
2022/03/08 12:54:42;;;;;;;1.63;0.85;;;;;;;;;;5084531;28;20116;-51
2022/03/08 12:57:10;;;;;;;3.38;1.08;;;;;;;;;;5079505;28;20402;-50
2022/03/08 12:59:46;;;;;;;1.52;0.70;;;;;;;;;;5088559;28;20115;-50
2022/03/08 13:02:13;;;;;;;1.90;0.90;;;;;;;;;;5083589;28;20468;-49
2022/03/08 13:04:39;;;;;;;2.10;0.80;;;;;;;;;;5080923;28;20024;-51
2022/03/08 13:07:09;;;;;;;1.88;0.77;;;;;;;;;;5085454;28;20472;-53
2022/03/08 13:09:54;;;;;;;3.28;0.90;;;;;;;;;;5086244;28;20113;-49
2022/03/08 13:12:21;;;;;;;1.35;0.90;;;;;;;;;;5080183;28;20107;-48
2022/03/08 13:15:06;;;;;;;2.22;0.88;;;;;;;;;;5076683;28;20037;-49
2022/03/08 13:17:32;;;;;;;1.67;0.80;;;;;;;;;;5081196;28;20028;-48
2022/03/08 13:19:58;;;;;;;2.80;0.82;;;;;;;;;;5077108;28;20033;-48
2022/03/08 13:22:24;;;;;;;1.63;0.75;;;;;;;;;;5080693;28;20421;-48
2022/03/08 13:25:08;;;;;;;2.65;0.90;;;;;;;;;;5076508;28;20032;-48
2022/03/08 13:27:55;;;;;;;1.83;0.65;;;;;;;;;;5075445;28;20115;-49
2022/03/08 13:30:22;;;;;;;1.55;0.73;;;;;;;;;;5078886;28;20387;-47
2022/03/08 13:32:49;;;;;;;1.58;0.90;;;;;;;;;;5088119;28;20070;-50
2022/03/08 13:35:16;;;;;;;2.58;0.73;;;;;;;;;;5090286;28;20118;-48
2022/03/08 13:37:46;;;;;;;0.85;0.70;;;;;;;;;;5075297;28;20086;-47
2022/03/08 13:40:33;;;;;;;1.67;0.80;;;;;;;;;;5084902;28;20479;-50
2022/03/08 13:42:59;;;;;;;1.67;0.95;;;;;;;;;;5077067;28;20475;-47
2022/03/08 13:45:26;;;;;;;1.73;0.85;;;;;;;;;;5088328;28;20055;-48
2022/03/08 13:47:55;;;;;;;3.65;0.80;;;;;;;;;;5079561;28;20036;-50
2022/03/08 13:50:21;;;;;;;1.95;0.90;;;;;;;;;;5087945;28;20404;-51
2022/03/08 13:52:51;;;;;;;1.80;0.80;;;;;;;;;;5085569;28;20048;-51
2022/03/08 13:55:18;;;;;;;0.73;0.50;;;;;;;;;;5085675;28;20056;-51
2022/03/08 13:57:54;;;;;;;2.30;0.93;;;;;;;;;;5087507;28;20076;-52
2022/03/08 14:00:20;;;;;;;1.30;0.63;;;;;;;;;;5094123;28;20035;-50
2022/03/08 14:02:45;;;;;;;3.05;0.90;;;;;;;;;;5083075;28;20494;-51
2022/03/08 14:05:12;;;;;;;2.65;0.95;;;;;;;;;;5092741;28;20032;-53
2022/03/08 14:07:38;;;;;;;2.78;1.00;;;;;;;;;;5087075;28;20392;-52
2022/03/08 14:10:04;;;;;;;3.00;0.90;;;;;;;;;;5095621;28;20028;-52
2022/03/08 14:12:46;;;;;;;2.10;1.02;;;;;;;;;;5089215;28;20050;-50
2022/03/08 14:15:12;;;;;;;2.90;0.93;;;;;;;;;;5075615;28;20051;-50
2022/03/08 14:17:39;;;;;;;1.90;0.55;;;;;;;;;;5080701;28;20504;-47
2022/03/08 14:20:15;;;;;;;1.45;0.73;;;;;;;;;;5093858;28;20020;-49
2022/03/08 14:23:00;;;;;;;1.75;0.68;;;;;;;;;;5084254;28;20031;-49
2022/03/08 14:25:26;;;;;;;2.13;0.88;;;;;;;;;;5095614;28;20020;-53
2022/03/08 14:27:52;;;;;;;1.67;0.85;;;;;;;;;;5078964;28;20066;-50
2022/03/08 14:30:26;;;;;;;2.40;0.98;;;;;;;;;;5089616;28;20032;-47
2022/03/08 14:32:52;;;;;;;2.35;0.82;;;;;;;;;;5081730;28;20614;-47
2022/03/08 14:35:20;;;;;;;2.60;1.02;;;;;;;;;;5085846;28;20024;-47
2022/03/08 14:37:46;;;;;;;0.98;0.52;;;;;;;;;;5085526;28;20036;-47
2022/03/08 14:40:13;;;;;;;3.13;1.00;;;;;;;;;;5080839;28;20103;-47
2022/03/08 14:42:40;;;;;;;2.28;0.77;;;;;;;;;;5076615;28;20020;-47